Airfield :







YOU CAN JOIN US ON...

 
LOGIN :

Register | Disclaimer

   EN    FR    IT 

 









Legend :    VFR   Marginal VFR   IFR   Intensive IFR   Very Intensive IFR
Visi :
Ceiling :
>= 8 km
>= 3000ft
5 to 8 km
1000 to 3000 ft
1500m to 5 km
500 to 1000 ft
800 to 1500m
200 to 500 ft
< 800m
< 200 ft
Symbols :   Thunderstorms  Fog  Heavy snow  Heavy precipitations  Wind > 20 kt






- Airport Elevation : 92 ft
- IATA code : YZX


CYZX - CFB Greenwood

CURRENT METAR :
  • 260300Z 13007KT 10SM OVC009 M01/M02 A3023 RMK SC8 SLP238

EXPIRED METARs :
  • 260230Z 15013KT 10SM OVC010 M00/M02 A3025 RMK SC8 SLP244
  • 260200Z 15014G20KT 10SM OVC011 M00/M02 A3026 RMK SC8 SLP247
  • 260100Z 14013KT 10SM OVC012 M00/M02 A3027 RMK SC8 SLP253

TAF AMD TAF CYZX
Valid from the 26 at 03:00 until the 27 at 00:00 UTC


260319Z 2603/2624 12010KT P6SM OVC009
TEMPO 2603/2612 OVC012
BECMG 2608/2610 13012G22KT
FM261200 14015G25KT P6SM -RA OVC009
FM261400 14017G27KT 5SM -RA BR OVC007
FM262100 17008KT 6SM BR SCT007 OVC012
BECMG 2622/2624 22005KT RMK NXT FCST BY 260600Z



MET'MAP, your aeronautical weather chart ! - Copyright ORBIFLY December 2007 - Disclaimer

ORBIFLY MET'MAP TEAM :

Programming & Development : Alexandra Zaïnal
Concept & original design : Baudouin d'Aumeries
Assistance for programming : Marc-Olivier Méhu
Technical & hardware support : Manuel Goepfert

Contact : metmap@orbifly.com




SOURCES & CREDITS :

   NOAA